Port Washington, Ohio
Current Conditions -  °F | °C
As of 3:14 AM on Monday 26 Jan 2015 (Local Time) from KPHD Reporting Station
Light Snow Light Snow  
Wind Chill: 14°   Ceiling: 1500
Heat Index: 22°   Visibility: 1.5mi
Dew Point: 18°   Wind: 6mph
Humidity: 85%   Direction: 360°N
Pressure: 29.76"   Gusts: NA
Location:  40.33°N, 81.52°W
Report Text: KPHD 260814Z AUTO 36005KT 1 1/2SM -SN BR OVC015 M06/M08 A2976 RMK AO2 P0000 T10561078
Loading
Personal Weather Stations






























Interactive Weather Map New forecast layout! Learn more

10-Day Weather Forecast

Advertisements
Track Severe Weather on mobile